Time;durP1;ratioP1;P1;durP2;ratioP2;P2;SDS_P1;SDS_P2;PMS_P1;PMS_P2;Temp;Humidity;BMP_temperature;BMP_pressure;BME280_temperature;BME280_humidity;BME280_pressure;Samples;Min_cycle;Max_cycle;Signal;HPM_P1;HPM_P2
2023/09/20 00:02:25;;;;;;;17.63;7.80;;;16.00;99.90;;;;;;5043276;28;20064;-45
2023/09/20 00:04:50;;;;;;;18.70;7.45;;;16.10;99.90;;;;;;5024426;28;20048;-46
2023/09/20 00:07:16;;;;;;;15.48;7.22;;;16.20;99.90;;;;;;5024935;28;20059;-46
2023/09/20 00:09:42;;;;;;;13.60;7.35;;;16.20;99.90;;;;;;5043071;28;20277;-47
2023/09/20 00:12:08;;;;;;;14.05;6.93;;;16.20;99.90;;;;;;5029772;28;20067;-46
2023/09/20 00:14:34;;;;;;;15.93;7.78;;;16.20;99.90;;;;;;5042288;28;20076;-44
2023/09/20 00:17:00;;;;;;;11.68;7.43;;;16.20;99.90;;;;;;5024658;28;20132;-46
2023/09/20 00:19:26;;;;;;;15.57;7.57;;;16.20;99.90;;;;;;5042920;28;20317;-45
2023/09/20 00:21:52;;;;;;;13.73;8.10;;;16.20;99.90;;;;;;5024243;28;20041;-47
2023/09/20 00:24:17;;;;;;;18.27;8.00;;;16.20;99.90;;;;;;5042291;28;20080;-49
2023/09/20 00:26:43;;;;;;;20.85;7.63;;;16.30;99.90;;;;;;5042885;28;20052;-47
2023/09/20 00:29:08;;;;;;;14.02;6.72;;;16.30;99.90;;;;;;5025286;28;20555;-45
2023/09/20 00:31:35;;;;;;;14.10;7.10;;;16.30;99.90;;;;;;5043037;28;20479;-46
2023/09/20 00:34:03;;;;;;;14.00;7.10;;;16.30;99.90;;;;;;5042584;28;20053;-51
2023/09/20 00:36:30;;;;;;;17.20;7.40;;;16.30;99.90;;;;;;5041503;28;20049;-44
2023/09/20 00:38:57;;;;;;;14.30;7.80;;;16.30;99.90;;;;;;5042177;28;20041;-45
2023/09/20 00:41:23;;;;;;;15.82;7.68;;;16.30;99.90;;;;;;5042318;28;20395;-46
2023/09/20 00:43:52;;;;;;;19.58;7.70;;;16.30;99.90;;;;;;5023856;28;20041;-44
2023/09/20 00:46:19;;;;;;;18.25;8.10;;;16.30;99.90;;;;;;5024241;28;20102;-49
2023/09/20 00:48:46;;;;;;;15.25;7.40;;;16.30;99.90;;;;;;5024276;28;20157;-46
2023/09/20 00:51:14;;;;;;;16.20;8.30;;;16.30;99.90;;;;;;5042586;28;20116;-47
2023/09/20 00:53:40;;;;;;;17.95;7.75;;;16.30;99.90;;;;;;5042185;28;20118;-45
2023/09/20 00:56:09;;;;;;;13.43;6.32;;;16.30;99.90;;;;;;5041607;28;20078;-48
2023/09/20 00:58:35;;;;;;;16.10;7.15;;;16.30;99.90;;;;;;5024278;28;20053;-45
2023/09/20 01:01:03;;;;;;;17.48;7.43;;;16.30;99.90;;;;;;5023981;28;20128;-46
2023/09/20 01:03:35;;;;;;;16.33;7.60;;;16.30;99.90;;;;;;5046551;28;20094;-46
2023/09/20 01:06:04;;;;;;;16.90;6.65;;;16.30;99.90;;;;;;5042236;28;20052;-45
2023/09/20 01:08:32;;;;;;;16.63;5.97;;;16.30;99.90;;;;;;5042087;28;20045;-45
2023/09/20 01:10:59;;;;;;;15.05;6.53;;;16.30;99.90;;;;;;5021374;28;20167;-44
2023/09/20 01:13:25;;;;;;;19.20;7.13;;;16.40;99.90;;;;;;5023444;28;20406;-46
2023/09/20 01:15:52;;;;;;;10.93;6.15;;;16.30;99.90;;;;;;5023438;28;20132;-46
2023/09/20 01:18:18;;;;;;;17.52;7.63;;;16.40;99.90;;;;;;5041765;28;20189;-44
2023/09/20 01:20:44;;;;;;;15.82;7.25;;;16.40;99.90;;;;;;5041689;28;20048;-44
2023/09/20 01:23:09;;;;;;;11.07;5.15;;;16.50;99.90;;;;;;5041506;28;20060;-46
2023/09/20 01:25:40;;;;;;;16.02;6.43;;;16.40;99.90;;;;;;5041658;28;20057;-46
2023/09/20 01:28:08;;;;;;;15.07;5.82;;;16.40;99.90;;;;;;5042061;28;20091;-45
2023/09/20 01:30:39;;;;;;;16.95;5.85;;;16.40;99.90;;;;;;5023907;28;20625;-43
2023/09/20 01:33:09;;;;;;;16.88;6.20;;;16.50;99.90;;;;;;5041926;28;20213;-46
2023/09/20 01:35:35;;;;;;;19.42;6.00;;;16.50;99.90;;;;;;5023339;28;20467;-44
2023/09/20 01:38:06;;;;;;;14.50;5.55;;;16.50;99.90;;;;;;5041387;28;20084;-44
2023/09/20 01:40:35;;;;;;;12.60;5.25;;;16.50;99.90;;;;;;5023534;28;20045;-44
2023/09/20 01:43:08;;;;;;;13.77;5.35;;;16.50;99.90;;;;;;5023128;28;20052;-43
2023/09/20 01:45:36;;;;;;;14.98;6.82;;;16.50;99.90;;;;;;5041176;28;20049;-44
2023/09/20 01:48:06;;;;;;;15.02;5.93;;;16.50;99.90;;;;;;5041245;28;20060;-44
2023/09/20 01:50:33;;;;;;;15.07;6.55;;;16.50;99.90;;;;;;5040266;28;20049;-43
2023/09/20 01:53:00;;;;;;;9.95;5.18;;;16.50;99.90;;;;;;5041052;28;20045;-44
2023/09/20 01:55:28;;;;;;;16.80;6.88;;;16.60;99.90;;;;;;5022699;28;20518;-43
2023/09/20 01:57:55;;;;;;;14.65;6.30;;;16.50;99.90;;;;;;5023506;28;20040;-44
2023/09/20 02:00:29;;;;;;;12.85;6.20;;;16.60;99.90;;;;;;5041521;28;20041;-44
2023/09/20 02:02:57;;;;;;;13.73;6.03;;;16.60;99.90;;;;;;5039477;28;20459;-45
2023/09/20 02:05:24;;;;;;;16.85;5.78;;;16.60;99.90;;;;;;5045840;28;20669;-44
2023/09/20 02:07:51;;;;;;;16.75;6.15;;;16.50;99.90;;;;;;5040916;28;20076;-44
2023/09/20 02:10:17;;;;;;;12.15;6.07;;;16.60;99.90;;;;;;5040532;28;20064;-43
2023/09/20 02:12:47;;;;;;;12.85;5.15;;;16.50;99.90;;;;;;5040491;28;20139;-43
2023/09/20 02:15:14;;;;;;;14.80;6.30;;;16.50;99.90;;;;;;5022671;28;20403;-44
2023/09/20 02:17:44;;;;;;;12.73;6.00;;;16.50;99.90;;;;;;5040958;28;20041;-45
2023/09/20 02:20:12;;;;;;;9.60;5.30;;;16.50;99.90;;;;;;5040852;28;20056;-44
2023/09/20 02:22:39;;;;;;;11.27;6.05;;;16.50;99.90;;;;;;5029811;28;20080;-44
2023/09/20 02:25:11;;;;;;;15.68;5.45;;;16.50;99.90;;;;;;5022207;28;20564;-43
2023/09/20 02:27:43;;;;;;;10.23;5.03;;;16.50;99.90;;;;;;5022804;28;20080;-44
2023/09/20 02:30:16;;;;;;;15.10;5.47;;;16.40;99.90;;;;;;5040926;28;20068;-44
2023/09/20 02:32:42;;;;;;;15.45;5.82;;;16.40;99.90;;;;;;5040317;28;20125;-44
2023/09/20 02:35:09;;;;;;;15.23;5.47;;;16.40;99.90;;;;;;5040064;28;20048;-43
2023/09/20 02:37:35;;;;;;;16.45;5.80;;;16.30;99.90;;;;;;5040606;28;20132;-43
2023/09/20 02:40:07;;;;;;;13.00;5.78;;;16.30;99.90;;;;;;5022737;28;20068;-45
2023/09/20 02:42:46;;;;;;;14.68;5.47;;;16.40;99.90;;;;;;5040483;28;20087;-43
2023/09/20 02:45:12;;;;;;;14.52;5.30;;;16.40;99.90;;;;;;5028563;28;20045;-44
2023/09/20 02:47:39;;;;;;;12.10;5.35;;;16.40;99.90;;;;;;5040683;28;20049;-44
2023/09/20 02:50:07;;;;;;;12.07;5.65;;;16.40;99.90;;;;;;5022494;28;20542;-43
2023/09/20 02:52:35;;;;;;;15.85;5.72;;;16.50;99.90;;;;;;5022101;28;20047;-45
2023/09/20 02:55:04;;;;;;;13.88;5.78;;;16.50;99.90;;;;;;5040224;28;20045;-44
2023/09/20 02:57:29;;;;;;;8.93;4.80;;;16.50;99.90;;;;;;5022062;28;20077;-44
2023/09/20 02:59:55;;;;;;;17.17;5.85;;;16.50;99.90;;;;;;5040439;28;20131;-44
2023/09/20 03:02:21;;;;;;;11.38;5.20;;;16.40;99.90;;;;;;5025658;28;20592;-45
2023/09/20 03:04:51;;;;;;;16.50;5.93;;;16.40;99.90;;;;;;5031953;28;20049;-44
2023/09/20 03:07:18;;;;;;;12.98;5.80;;;16.40;99.90;;;;;;5044307;28;20052;-44
2023/09/20 03:09:44;;;;;;;10.98;5.38;;;16.40;99.90;;;;;;5044770;28;20057;-45
2023/09/20 03:12:10;;;;;;;16.60;5.85;;;16.40;99.90;;;;;;5009496;28;20167;-45
2023/09/20 03:14:39;;;;;;;13.32;5.30;;;16.40;99.90;;;;;;5043392;28;20045;-44
2023/09/20 03:17:05;;;;;;;13.90;5.28;;;16.50;99.90;;;;;;5025252;28;20423;-44
2023/09/20 03:19:31;;;;;;;13.73;6.00;;;16.40;99.90;;;;;;5044226;28;20060;-44
2023/09/20 03:22:01;;;;;;;13.32;5.00;;;16.40;99.90;;;;;;5026482;28;20121;-45
2023/09/20 03:24:27;;;;;;;14.70;5.57;;;16.40;99.90;;;;;;5043790;28;20040;-45
2023/09/20 03:26:54;;;;;;;13.77;6.07;;;16.40;99.90;;;;;;5025899;28;20049;-43
2023/09/20 03:29:20;;;;;;;11.77;5.38;;;16.40;99.90;;;;;;5044051;28;20041;-44
2023/09/20 03:31:48;;;;;;;12.90;5.47;;;16.40;99.90;;;;;;5043648;28;20147;-45
2023/09/20 03:34:14;;;;;;;12.48;5.90;;;16.40;99.90;;;;;;5043702;28;20043;-43
2023/09/20 03:36:41;;;;;;;11.00;5.22;;;16.40;99.90;;;;;;5044103;28;20045;-44
2023/09/20 03:39:11;;;;;;;12.88;5.32;;;16.30;99.90;;;;;;5025864;28;20128;-44
2023/09/20 03:41:38;;;;;;;12.07;5.68;;;16.30;99.90;;;;;;5025489;28;20045;-43
2023/09/20 03:44:05;;;;;;;15.57;6.20;;;16.30;99.90;;;;;;5025261;28;20375;-46
2023/09/20 03:46:32;;;;;;;11.50;5.70;;;16.30;99.90;;;;;;5025708;28;20392;-45
2023/09/20 03:48:58;;;;;;;13.57;5.22;;;16.30;99.90;;;;;;5043793;28;20060;-44
2023/09/20 03:51:24;;;;;;;19.13;5.90;;;16.20;99.90;;;;;;5043850;28;20041;-43
2023/09/20 03:53:49;;;;;;;13.15;5.95;;;16.20;99.90;;;;;;5025310;28;20044;-45
2023/09/20 03:56:15;;;;;;;15.02;5.78;;;16.20;99.90;;;;;;5043628;28;20049;-45
2023/09/20 03:58:41;;;;;;;13.13;5.40;;;16.10;99.90;;;;;;5044044;28;20041;-44
2023/09/20 04:01:08;;;;;;;15.93;6.32;;;16.00;99.90;;;;;;5042986;28;20563;-44
2023/09/20 04:03:37;;;;;;;14.63;6.57;;;15.90;99.90;;;;;;5047983;28;20493;-43
2023/09/20 04:06:02;;;;;;;16.30;6.88;;;15.90;99.90;;;;;;5024078;28;20561;-44
2023/09/20 04:08:28;;;;;;;16.25;6.18;;;15.80;99.90;;;;;;5009381;28;20061;-45
2023/09/20 04:10:56;;;;;;;9.73;5.18;;;15.70;99.90;;;;;;4995239;28;20099;-44
2023/09/20 04:13:22;;;;;;;14.85;5.75;;;15.70;99.90;;;;;;5023752;28;20381;-44
2023/09/20 04:15:48;;;;;;;18.80;5.80;;;15.60;99.90;;;;;;5043026;28;20566;-43
2023/09/20 04:18:15;;;;;;;15.73;5.85;;;15.60;99.90;;;;;;5043473;28;20428;-46
2023/09/20 04:20:41;;;;;;;14.82;6.00;;;15.50;99.90;;;;;;5009170;28;20132;-44
2023/09/20 04:23:07;;;;;;;13.07;5.88;;;15.50;99.90;;;;;;5042866;28;20045;-48
2023/09/20 04:25:32;;;;;;;14.32;5.40;;;15.50;99.90;;;;;;5042919;28;20072;-44
2023/09/20 04:27:58;;;;;;;13.90;6.35;;;15.50;99.90;;;;;;5043450;28;20394;-46
2023/09/20 04:30:24;;;;;;;13.63;6.10;;;15.50;99.90;;;;;;5025562;28;20605;-44
2023/09/20 04:32:51;;;;;;;14.30;6.05;;;15.40;99.90;;;;;;5024729;28;20604;-44
2023/09/20 04:35:17;;;;;;;14.88;6.15;;;15.40;99.90;;;;;;5024155;28;20575;-45
2023/09/20 04:37:44;;;;;;;16.05;5.82;;;15.40;99.90;;;;;;5030092;28;20051;-43
2023/09/20 04:40:10;;;;;;;16.77;6.78;;;15.30;99.90;;;;;;5008651;28;20055;-44
2023/09/20 04:42:36;;;;;;;13.60;6.88;;;15.30;99.90;;;;;;5024432;28;20060;-46
2023/09/20 04:45:12;;;;;;;15.55;6.20;;;15.30;99.90;;;;;;5042591;28;20055;-43
2023/09/20 04:47:38;;;;;;;16.00;6.97;;;15.30;99.90;;;;;;5024946;28;20049;-45
2023/09/20 04:50:04;;;;;;;16.33;7.38;;;15.20;99.90;;;;;;5043164;28;20132;-47
2023/09/20 04:52:30;;;;;;;16.10;6.38;;;15.20;99.90;;;;;;5024198;28;20155;-45
2023/09/20 04:54:56;;;;;;;17.45;6.60;;;15.30;99.90;;;;;;5041887;28;20357;-44
2023/09/20 04:57:21;;;;;;;10.93;5.60;;;15.20;99.90;;;;;;5024157;28;20081;-43
2023/09/20 04:59:47;;;;;;;14.10;6.15;;;15.20;99.90;;;;;;5024260;28;20080;-45
2023/09/20 05:02:14;;;;;;;14.90;6.68;;;15.20;99.90;;;;;;5023823;28;20051;-45
2023/09/20 05:04:40;;;;;;;13.88;6.15;;;15.20;99.90;;;;;;5030494;28;20049;-46
2023/09/20 05:07:06;;;;;;;13.18;6.07;;;15.20;99.90;;;;;;5024154;28;20507;-46
2023/09/20 05:09:34;;;;;;;13.43;5.88;;;15.30;99.90;;;;;;5008062;28;20124;-46
2023/09/20 05:12:02;;;;;;;11.85;5.35;;;15.30;99.90;;;;;;5042252;28;20044;-45
2023/09/20 05:14:27;;;;;;;14.80;6.03;;;15.30;99.90;;;;;;5006580;28;20205;-45
2023/09/20 05:16:53;;;;;;;17.77;6.97;;;15.30;99.90;;;;;;5038281;28;20041;-48
2023/09/20 05:19:18;;;;;;;18.38;6.55;;;15.40;99.90;;;;;;5007411;28;20052;-44
2023/09/20 05:21:45;;;;;;;11.65;6.28;;;15.40;99.90;;;;;;5041982;28;20049;-45
2023/09/20 05:24:10;;;;;;;11.45;5.15;;;15.40;99.90;;;;;;5041115;28;20052;-43
2023/09/20 05:26:36;;;;;;;14.68;6.40;;;15.50;99.90;;;;;;5023591;28;20045;-47
2023/09/20 05:29:03;;;;;;;13.88;5.63;;;15.50;99.90;;;;;;5041265;28;20044;-45
2023/09/20 05:31:29;;;;;;;12.25;5.40;;;15.50;99.90;;;;;;5023477;28;20560;-44
2023/09/20 05:33:55;;;;;;;13.00;5.97;;;15.50;99.90;;;;;;5022743;28;20360;-44
2023/09/20 05:36:22;;;;;;;11.77;5.65;;;15.50;99.90;;;;;;5023601;28;20581;-43
2023/09/20 05:38:49;;;;;;;17.40;6.03;;;15.50;99.90;;;;;;5041987;28;20051;-47
2023/09/20 05:41:17;;;;;;;13.43;5.57;;;15.60;99.90;;;;;;5041917;28;20381;-45
2023/09/20 05:43:43;;;;;;;13.07;5.60;;;15.60;99.90;;;;;;5023393;28;20102;-46
2023/09/20 05:46:16;;;;;;;14.75;5.63;;;15.70;99.90;;;;;;5041304;28;20045;-45
2023/09/20 05:48:42;;;;;;;15.75;6.53;;;15.70;99.90;;;;;;5041851;28;20040;-44
2023/09/20 05:51:08;;;;;;;14.43;5.55;;;15.70;99.90;;;;;;5023315;28;20197;-45
2023/09/20 05:53:34;;;;;;;13.63;6.07;;;15.70;99.90;;;;;;5041009;28;20049;-47
2023/09/20 05:56:08;;;;;;;10.88;5.07;;;15.80;99.90;;;;;;5040694;28;20361;-46
2023/09/20 05:58:34;;;;;;;12.77;5.55;;;15.80;99.90;;;;;;5041573;28;20056;-45
2023/09/20 06:01:00;;;;;;;11.73;5.47;;;15.80;99.90;;;;;;5040970;28;20420;-45
2023/09/20 06:03:26;;;;;;;10.15;5.07;;;15.80;99.90;;;;;;5026689;28;20083;-44
2023/09/20 06:05:51;;;;;;;12.90;5.38;;;15.80;99.90;;;;;;5042215;28;20640;-44
2023/09/20 06:08:17;;;;;;;9.30;4.57;;;15.80;99.90;;;;;;5040783;28;20044;-45
2023/09/20 06:10:44;;;;;;;12.30;5.38;;;15.80;99.90;;;;;;5018263;28;20056;-46
2023/09/20 06:13:10;;;;;;;11.00;5.50;;;15.80;99.90;;;;;;5014496;28;20078;-44
2023/09/20 06:15:39;;;;;;;10.32;4.75;;;15.80;99.90;;;;;;5040819;28;20045;-45
2023/09/20 06:18:06;;;;;;;11.43;4.85;;;15.80;99.90;;;;;;5037097;28;20049;-46
2023/09/20 06:20:33;;;;;;;12.00;5.22;;;15.80;99.90;;;;;;5041251;28;20090;-44
2023/09/20 06:22:58;;;;;;;12.95;5.32;;;15.90;99.90;;;;;;5023244;28;20049;-47
2023/09/20 06:25:24;;;;;;;9.20;4.50;;;15.90;99.90;;;;;;5006075;28;20048;-46
2023/09/20 06:27:50;;;;;;;12.95;4.70;;;15.90;99.90;;;;;;5041116;28;20247;-47
2023/09/20 06:30:24;;;;;;;14.57;4.93;;;15.90;99.90;;;;;;5040939;28;20045;-44
2023/09/20 06:32:50;;;;;;;11.55;4.68;;;15.90;99.90;;;;;;5040502;28;20053;-46
2023/09/20 06:35:19;;;;;;;7.30;4.00;;;15.90;99.90;;;;;;5040407;28;20495;-43
2023/09/20 06:37:48;;;;;;;7.40;4.50;;;15.90;99.90;;;;;;5045003;28;20041;-47
2023/09/20 06:40:26;;;;;;;20.65;5.55;;;15.90;99.90;;;;;;5026785;28;20041;-44
2023/09/20 06:42:52;;;;;;;11.90;4.90;;;15.90;99.90;;;;;;5043256;28;20110;-44
2023/09/20 06:45:22;;;;;;;12.35;5.70;;;15.90;99.90;;;;;;5026082;28;20111;-44
2023/09/20 06:47:48;;;;;;;13.95;4.55;;;15.90;99.90;;;;;;5026883;28;20044;-46
2023/09/20 06:50:13;;;;;;;15.88;4.80;;;15.90;99.90;;;;;;5045034;28;20064;-44
2023/09/20 06:52:42;;;;;;;12.35;4.68;;;15.90;99.90;;;;;;5025907;28;20045;-45
2023/09/20 06:55:13;;;;;;;10.95;5.28;;;15.90;99.90;;;;;;5026035;28;20569;-46
2023/09/20 06:57:39;;;;;;;14.55;4.82;;;15.90;99.90;;;;;;5026733;28;20048;-48
2023/09/20 07:00:08;;;;;;;10.90;5.40;;;16.00;99.90;;;;;;5047571;28;20105;-44
2023/09/20 07:02:40;;;;;;;9.90;4.20;;;16.00;99.90;;;;;;5033768;28;20400;-45
2023/09/20 07:05:06;;;;;;;10.90;4.57;;;16.10;99.90;;;;;;5034438;28;20109;-45
2023/09/20 07:07:32;;;;;;;12.77;4.80;;;16.20;99.90;;;;;;5035872;28;20046;-45
2023/09/20 07:09:58;;;;;;;12.88;5.40;;;16.20;99.90;;;;;;5036006;28;20053;-43
2023/09/20 07:12:24;;;;;;;10.70;4.97;;;16.30;99.90;;;;;;5052916;28;20114;-43
2023/09/20 07:14:49;;;;;;;11.48;4.50;;;16.40;99.90;;;;;;5055310;28;20044;-44
2023/09/20 07:17:15;;;;;;;8.63;4.20;;;16.50;99.90;;;;;;5055889;28;20048;-45
2023/09/20 07:19:40;;;;;;;9.65;4.38;;;16.60;99.90;;;;;;5052789;28;20448;-45
2023/09/20 07:22:06;;;;;;;9.43;4.97;;;16.70;99.90;;;;;;5035555;28;20044;-44
2023/09/20 07:24:33;;;;;;;8.20;3.90;;;16.70;99.90;;;;;;5034241;28;20449;-43
2023/09/20 07:26:58;;;;;;;12.35;4.93;;;16.80;99.90;;;;;;5051710;28;20076;-44
2023/09/20 07:29:24;;;;;;;8.35;3.95;;;16.80;99.90;;;;;;5033851;28;20037;-44
2023/09/20 07:31:50;;;;;;;10.05;5.25;;;16.80;99.90;;;;;;5053622;28;20047;-45
2023/09/20 07:34:19;;;;;;;12.10;4.95;;;16.80;99.90;;;;;;5051300;28;20067;-43
2023/09/20 07:36:45;;;;;;;10.73;4.22;;;16.80;99.90;;;;;;5051013;28;20044;-44
2023/09/20 07:39:13;;;;;;;11.48;5.00;;;16.80;99.90;;;;;;5033283;28;20064;-43
2023/09/20 07:41:50;;;;;;;9.07;4.80;;;16.90;99.90;;;;;;5043878;28;20049;-43
2023/09/20 07:44:17;;;;;;;8.52;4.45;;;17.00;99.90;;;;;;5042710;28;20308;-45
2023/09/20 07:46:43;;;;;;;12.05;5.28;;;16.90;99.90;;;;;;5042559;28;20058;-44
2023/09/20 07:49:12;;;;;;;8.27;4.28;;;16.90;99.90;;;;;;5042312;28;20499;-44
2023/09/20 07:51:39;;;;;;;11.02;4.78;;;16.90;99.90;;;;;;5015449;28;20045;-43
2023/09/20 07:54:09;;;;;;;10.00;4.43;;;16.90;99.90;;;;;;5033843;28;20123;-44
2023/09/20 07:56:34;;;;;;;10.10;4.50;;;16.90;99.90;;;;;;5049263;28;20040;-45
2023/09/20 07:59:03;;;;;;;9.23;4.60;;;16.90;99.90;;;;;;5034746;28;20502;-44
2023/09/20 08:01:30;;;;;;;8.70;3.95;;;16.90;99.90;;;;;;5052352;28;20350;-45
2023/09/20 08:03:58;;;;;;;11.65;4.72;;;16.90;99.90;;;;;;5051201;28;20033;-44
2023/09/20 08:06:27;;;;;;;8.82;4.68;;;17.00;99.90;;;;;;5051889;28;20047;-44
2023/09/20 08:08:55;;;;;;;9.18;4.22;;;17.10;99.90;;;;;;5028170;28;20055;-44
2023/09/20 08:11:21;;;;;;;8.77;4.07;;;17.20;99.90;;;;;;5043078;28;20045;-44
2023/09/20 08:13:48;;;;;;;7.15;4.05;;;17.30;99.90;;;;;;5007428;28;20045;-44
2023/09/20 08:16:15;;;;;;;9.38;4.25;;;17.30;99.90;;;;;;5042076;28;20107;-45
2023/09/20 08:21:26;;;;;;;10.23;5.10;;;17.30;99.90;;;;;;5043334;28;20377;-44
2023/09/20 08:59:53;;;;;;;8.30;5.40;;;17.20;99.90;;;;;;5029105;28;20181;-44
2023/09/20 09:02:21;;;;;;;10.40;5.65;;;17.20;99.90;;;;;;5041318;28;20123;-44
2023/09/20 09:04:53;;;;;;;11.45;5.95;;;17.20;99.90;;;;;;5047687;28;20075;-45
2023/09/20 09:07:23;;;;;;;8.75;5.57;;;17.20;99.90;;;;;;5041645;28;20035;-45
2023/09/20 09:09:50;;;;;;;10.68;6.25;;;17.20;99.90;;;;;;5041627;28;20064;-46
2023/09/20 09:12:16;;;;;;;7.82;5.30;;;17.20;99.90;;;;;;5006022;28;20120;-44
2023/09/20 09:14:42;;;;;;;15.00;6.80;;;17.20;99.90;;;;;;5041352;28;20239;-45
2023/09/20 09:17:09;;;;;;;9.73;6.07;;;17.20;99.90;;;;;;5040996;28;20400;-43
2023/09/20 09:19:36;;;;;;;8.15;6.45;;;17.10;99.90;;;;;;5041637;28;20567;-44
2023/09/20 09:22:02;;;;;;;9.10;5.88;;;17.10;99.90;;;;;;5022719;28;20049;-45
2023/09/20 09:24:42;;;;;;;9.00;6.10;;;17.10;99.90;;;;;;5041181;28;20049;-44
2023/09/20 09:27:08;;;;;;;8.23;6.85;;;17.20;99.90;;;;;;5041483;28;20097;-44
2023/09/20 09:29:33;;;;;;;9.10;6.40;;;17.20;99.90;;;;;;5041545;28;20036;-44
2023/09/20 09:32:04;;;;;;;9.63;6.80;;;17.20;99.90;;;;;;5041184;28;20040;-44
2023/09/20 09:34:30;;;;;;;8.90;7.15;;;17.20;99.90;;;;;;5041869;28;20048;-45
2023/09/20 09:36:56;;;;;;;7.65;6.40;;;17.30;99.90;;;;;;5042310;28;20049;-45
2023/09/20 09:39:24;;;;;;;10.38;6.88;;;17.30;99.90;;;;;;5023725;28;20399;-44
2023/09/20 09:41:51;;;;;;;14.05;6.68;;;17.30;99.90;;;;;;5023052;28;20064;-45
2023/09/20 09:44:17;;;;;;;10.95;7.47;;;17.40;99.90;;;;;;5022958;28;20044;-45
2023/09/20 09:46:43;;;;;;;7.53;6.75;;;17.50;99.90;;;;;;5030163;28;20686;-45
2023/09/20 09:49:11;;;;;;;11.05;6.95;;;17.50;99.90;;;;;;5041457;28;20095;-45
2023/09/20 09:51:50;;;;;;;9.27;7.18;;;17.60;99.90;;;;;;5041698;28;20448;-47
2023/09/20 09:54:21;;;;;;;10.27;7.45;;;17.60;99.90;;;;;;5040642;28;20045;-44
2023/09/20 09:56:47;;;;;;;7.63;6.93;;;17.70;99.90;;;;;;5040939;28;20049;-44
2023/09/20 09:59:13;;;;;;;10.27;6.90;;;17.70;99.90;;;;;;5023272;28;20453;-45
2023/09/20 10:01:40;;;;;;;10.38;7.47;;;17.80;99.90;;;;;;5041345;28;20037;-45
2023/09/20 10:04:17;;;;;;;7.55;6.53;;;17.80;99.90;;;;;;5047509;28;20073;-44
2023/09/20 10:07:14;;;;;;;7.63;6.35;;;17.90;99.90;;;;;;5023163;28;20097;-45
2023/09/20 10:09:42;;;;;;;8.75;6.82;;;17.90;99.90;;;;;;5030646;28;20499;-45
2023/09/20 10:12:10;;;;;;;11.95;6.97;;;17.90;99.90;;;;;;5022564;28;20052;-46
2023/09/20 10:14:37;;;;;;;8.90;6.47;;;17.90;99.90;;;;;;5022946;28;20091;-44
2023/09/20 10:17:06;;;;;;;12.68;7.57;;;17.90;99.90;;;;;;5022909;28;20462;-45
2023/09/20 10:19:33;;;;;;;8.40;7.45;;;17.80;99.90;;;;;;5007174;28;20144;-46
2023/09/20 10:22:09;;;;;;;14.95;8.25;;;17.80;99.90;;;;;;5043532;28;20525;-46
2023/09/20 10:25:00;;;;;;;7.63;6.82;;;17.80;99.90;;;;;;5022631;28;20041;-46
2023/09/20 10:27:31;;;;;;;8.52;6.90;;;17.80;99.90;;;;;;5041186;28;20540;-47
2023/09/20 10:30:10;;;;;;;8.05;6.63;;;17.80;99.90;;;;;;5022793;28;20049;-44
2023/09/20 10:32:41;;;;;;;8.85;6.78;;;17.80;99.90;;;;;;5022517;28;20053;-45
2023/09/20 10:35:19;;;;;;;8.77;7.35;;;17.90;99.90;;;;;;5040733;28;20045;-45
2023/09/20 10:38:07;;;;;;;10.20;7.10;;;17.90;99.90;;;;;;5041582;28;20053;-48
2023/09/20 10:40:45;;;;;;;7.60;6.85;;;18.00;99.90;;;;;;5041108;28;20037;-44
2023/09/20 10:43:25;;;;;;;8.80;7.55;;;18.00;99.90;;;;;;5040437;28;20115;-44
2023/09/20 10:45:53;;;;;;;10.77;7.82;;;18.00;99.90;;;;;;5040637;28;20055;-45
2023/09/20 10:48:30;;;;;;;8.93;6.85;;;18.00;99.90;;;;;;5018820;28;20057;-46
2023/09/20 10:50:59;;;;;;;7.30;6.60;;;18.00;99.90;;;;;;5022481;28;20056;-46
2023/09/20 10:53:50;;;;;;;10.70;7.93;;;18.00;99.90;;;;;;5039806;28;20506;-46
2023/09/20 10:56:52;;;;;;;12.27;7.93;;;18.00;99.90;;;;;;5022517;28;20524;-46
2023/09/20 10:59:26;;;;;;;10.88;7.43;;;18.10;99.90;;;;;;4995475;28;20260;-47
2023/09/20 11:01:52;;;;;;;10.32;7.80;;;18.10;99.90;;;;;;5039760;28;20107;-45
2023/09/20 11:04:19;;;;;;;9.98;7.88;;;18.10;99.90;;;;;;5040814;28;20220;-44
2023/09/20 11:06:47;;;;;;;9.52;7.82;;;18.20;99.90;;;;;;5022089;28;20095;-44
2023/09/20 11:09:13;;;;;;;8.73;7.82;;;18.20;99.90;;;;;;5039972;28;20661;-45
2023/09/20 11:11:39;;;;;;;13.40;7.57;;;18.20;99.90;;;;;;5021356;28;20045;-46
2023/09/20 11:14:06;;;;;;;8.57;7.82;;;18.20;99.90;;;;;;5039199;28;20072;-48
2023/09/20 11:16:31;;;;;;;10.32;8.32;;;18.20;99.90;;;;;;5018958;28;20456;-45
2023/09/20 11:18:58;;;;;;;9.70;7.88;;;18.20;99.90;;;;;;5040895;28;20033;-46
2023/09/20 11:21:24;;;;;;;9.23;8.32;;;18.20;99.90;;;;;;5040990;28;20250;-48
2023/09/20 11:23:51;;;;;;;9.68;8.68;;;18.10;99.90;;;;;;5008839;28;20097;-46
2023/09/20 11:26:27;;;;;;;10.65;8.63;;;18.20;99.90;;;;;;5043957;28;20072;-45
2023/09/20 11:28:52;;;;;;;8.93;7.60;;;18.20;99.90;;;;;;5025966;28;20080;-46
2023/09/20 11:31:28;;;;;;;10.70;8.15;;;18.20;99.90;;;;;;5044289;28;20488;-45
2023/09/20 11:33:58;;;;;;;7.88;7.22;;;18.30;99.90;;;;;;5025827;28;20127;-48
2023/09/20 11:36:25;;;;;;;12.73;7.38;;;18.30;99.90;;;;;;5026003;28;20116;-45
2023/09/20 11:38:51;;;;;;;8.80;7.55;;;18.30;99.90;;;;;;5043448;28;20040;-44
2023/09/20 11:41:17;;;;;;;8.95;6.75;;;18.40;99.90;;;;;;5043575;28;20041;-49
2023/09/20 11:43:45;;;;;;;8.20;7.30;;;18.30;99.90;;;;;;5043174;28;20579;-49
2023/09/20 11:46:11;;;;;;;11.95;6.93;;;18.30;99.90;;;;;;5025605;28;20041;-44
2023/09/20 11:48:37;;;;;;;12.73;7.18;;;18.30;99.90;;;;;;5026096;28;20098;-47
2023/09/20 11:51:04;;;;;;;7.53;6.57;;;18.20;99.90;;;;;;5024788;28;20554;-46
2023/09/20 11:53:31;;;;;;;7.10;6.05;;;18.30;99.90;;;;;;5042713;28;20505;-45
2023/09/20 11:56:00;;;;;;;11.15;6.93;;;18.20;99.90;;;;;;5043812;28;20086;-44
2023/09/20 11:58:32;;;;;;;9.95;6.38;;;18.20;99.90;;;;;;5043497;28;20072;-44
2023/09/20 12:00:58;;;;;;;10.93;6.50;;;18.10;99.90;;;;;;5025444;28;20068;-45
2023/09/20 12:03:23;;;;;;;8.13;6.50;;;18.20;99.90;;;;;;5045821;28;20040;-45
2023/09/20 12:05:49;;;;;;;8.45;6.75;;;18.30;99.90;;;;;;5027021;28;20052;-45
2023/09/20 12:08:15;;;;;;;9.32;6.85;;;18.30;99.90;;;;;;5043134;28;20048;-45
2023/09/20 12:10:41;;;;;;;9.23;6.30;;;18.30;99.90;;;;;;5042814;28;20323;-44
2023/09/20 12:13:07;;;;;;;8.23;6.20;;;18.30;99.90;;;;;;5024265;28;20028;-45
2023/09/20 12:15:37;;;;;;;9.77;6.65;;;18.40;99.90;;;;;;5043189;28;20036;-45
2023/09/20 12:18:03;;;;;;;9.55;7.00;;;18.50;99.90;;;;;;5044325;28;20059;-44
2023/09/20 12:20:29;;;;;;;8.88;7.43;;;18.50;99.90;;;;;;5044000;28;20564;-46
2023/09/20 12:22:56;;;;;;;11.73;7.00;;;18.50;99.90;;;;;;5043980;28;20041;-45
2023/09/20 12:25:22;;;;;;;8.02;6.85;;;18.50;99.90;;;;;;5043401;28;20049;-45
2023/09/20 12:27:47;;;;;;;9.68;7.22;;;18.60;99.90;;;;;;5043852;28;20045;-44
2023/09/20 12:30:13;;;;;;;7.75;7.00;;;18.60;99.90;;;;;;5009071;28;20648;-44
2023/09/20 12:32:41;;;;;;;9.82;7.35;;;18.60;99.90;;;;;;5025361;28;20049;-44
2023/09/20 12:35:09;;;;;;;12.93;7.30;;;18.60;99.90;;;;;;5042300;28;20080;-44
2023/09/20 12:37:35;;;;;;;6.88;6.05;;;18.60;99.90;;;;;;5025571;28;20511;-45
2023/09/20 12:40:06;;;;;;;8.80;6.85;;;18.70;99.90;;;;;;5043545;28;20400;-44
2023/09/20 12:42:33;;;;;;;7.78;6.07;;;18.70;99.90;;;;;;5042888;28;20045;-51
2023/09/20 12:45:01;;;;;;;10.75;5.93;;;18.70;99.90;;;;;;5026002;28;20071;-43
2023/09/20 12:47:27;;;;;;;9.30;5.25;;;18.70;99.90;;;;;;5024998;28;20056;-44
2023/09/20 12:49:53;;;;;;;9.32;5.85;;;18.70;99.90;;;;;;5024552;28;20036;-44
2023/09/20 12:52:18;;;;;;;9.68;5.35;;;18.80;99.90;;;;;;5042018;28;20036;-44
2023/09/20 12:54:44;;;;;;;8.85;5.47;;;18.90;99.90;;;;;;5042038;28;20856;-44
2023/09/20 12:57:10;;;;;;;6.88;4.57;;;18.90;99.90;;;;;;5039710;28;20041;-44
2023/09/20 12:59:36;;;;;;;7.65;5.20;;;19.00;99.90;;;;;;5023548;28;20044;-44
2023/09/20 13:02:02;;;;;;;8.38;4.97;;;18.90;99.90;;;;;;5023652;28;20045;-43
2023/09/20 13:04:27;;;;;;;9.68;5.72;;;19.00;99.90;;;;;;5045033;28;20124;-44
2023/09/20 13:06:54;;;;;;;10.30;4.90;;;19.20;99.90;;;;;;5042740;28;20037;-44
2023/09/20 13:09:21;;;;;;;6.63;4.63;;;19.30;99.90;;;;;;5042122;28;20176;-44
2023/09/20 13:11:48;;;;;;;6.63;4.40;;;19.40;99.90;;;;;;5042130;28;20048;-44
2023/09/20 13:14:19;;;;;;;7.28;4.60;;;19.50;99.90;;;;;;5030830;28;20078;-42
2023/09/20 13:16:50;;;;;;;9.48;4.80;;;19.50;99.90;;;;;;5039151;28;20081;-46
2023/09/20 13:19:16;;;;;;;5.97;4.05;;;19.60;99.90;;;;;;5018620;28;20060;-45
2023/09/20 13:21:42;;;;;;;8.45;4.68;;;19.60;99.90;;;;;;5007744;28;20032;-45
2023/09/20 13:24:11;;;;;;;7.57;4.63;;;19.70;99.90;;;;;;5040937;28;20492;-45